Maple Heights, OH

2:31 AM EDT on September 05, 2015 (GMT -0400)
Tri-C East Campus | | Change Station
CLOSE
Current Station
Personal Weather Station
Location: Highland Hills, OH
Elevation: 1227 ft
Nearby Weather Stations

Elev 1227 ft 41.45 °N, 81.50 °W | Updated 12 minutes ago

Clear
Clear
71.0 °F
Feels Like 71 °F
N
1.0
Wind Variable Wind from SE
Gusts 3.0 mph

Today
High -- | Low -- °F
--% Chance of Precip.
Yesterday
High -- | Low -- °F
Precip. -- in
6:56 AM 7:52 PM
Waning Gibbous, 52% visible
Pressure 30.08 in
Visibility 10.0 miles
Clouds Scattered Clouds 3800 ft
Heat Index 71 °F
Dew Point 66 °F
Humidity 83%
Rainfall 0.00 in
Snow Depth Not available.
UV 0 out of 12
Pollen 8.70 out of 12
Air Quality Not available.
Flu Activity Not available.
METAR KBKL 050553Z AUTO 12003KT 10SM SCT038 23/19 A3009 RMK AO2 SLP184 T02330194 10272 20233 53004 TSNO
Pressure 30.08 in
Visibility 10.0 miles
Clouds Scattered Clouds 3800 ft
Heat Index 71 °F
Dew Point 66 °F
Humidity 83%
Rainfall 0.00 in
Snow Depth Not available.
UV 0 out of 12
Pollen 8.70 out of 12
Air Quality Not available.
Flu Activity Not available.
METAR KBKL 050553Z AUTO 12003KT 10SM SCT038 23/19 A3009 RMK AO2 SLP184 T02330194 10272 20233 53004 TSNO

10-Day Weather Forecast

×

Almanac

Astronomy

Sep. 05, 2015 Rise Set
Actual Time
Civil Twilight
Nautical Twilight
Astronomical Twilight
Moon
Length of Visible Light
Length of Day
Tomorrow will be .
, % of the Moon is Illuminated

Today's Extremes

State Highs State Lows

Community

WunderPhotos

Upload Photos

1,852,430 photos uploaded!

WunderBlogs® & News

Nearby

Air Quality

  Air Quality AQ Index Pollutant
Not available.

Snow Depth

Station Depth Elevation

Earthquake Activity

City Distance Mag. Time & Date
Minimum magnitude displayed is 2.5.

Coastal Water Temperatures

Place Temperature

Stations

Nearby Weather Stations

Station Location Temp. Windchill Dew Point Humidity Wind Precip. Elev Updated Type